createdAt,value
2023-03-29T00:04:33.698Z,6.3
2023-03-29T00:09:39.858Z,6.3
2023-03-29T00:14:45.910Z,6.7
2023-03-29T00:19:52.036Z,6.3
2023-03-29T00:24:58.143Z,6.3
2023-03-29T00:30:04.264Z,6
2023-03-29T00:35:10.364Z,6
2023-03-29T00:40:16.503Z,6.3
2023-03-29T00:45:22.619Z,6.3
2023-03-29T00:50:28.718Z,6.3
2023-03-29T00:55:33.844Z,6
2023-03-29T01:00:39.964Z,6.3
2023-03-29T01:05:46.082Z,6
2023-03-29T01:10:52.190Z,6.3
2023-03-29T01:21:04.448Z,6.3
2023-03-29T01:26:10.553Z,6.3
2023-03-29T01:31:16.659Z,6.3
2023-03-29T01:36:22.784Z,6.3
2023-03-29T01:41:28.913Z,6.3
2023-03-29T01:46:35.018Z,6
2023-03-29T01:51:41.140Z,6.3
2023-03-29T01:56:47.237Z,6
2023-03-29T02:01:52.368Z,6
2023-03-29T02:06:58.488Z,6.3
2023-03-29T02:12:04.617Z,6
2023-03-29T02:17:10.728Z,6.3
2023-03-29T02:22:16.837Z,5.7
2023-03-29T02:27:22.944Z,6.3
2023-03-29T02:32:29.064Z,6.3
2023-03-29T02:37:35.168Z,6
2023-03-29T02:42:41.304Z,5.7
2023-03-29T02:47:47.413Z,5.4
2023-03-29T02:52:53.537Z,5.7
2023-03-29T02:57:59.641Z,6.3
2023-03-29T03:03:05.788Z,5.7
2023-03-29T03:08:10.915Z,5.4
2023-03-29T03:13:17.029Z,5.7
2023-03-29T03:18:23.155Z,5.7
2023-03-29T03:23:29.270Z,6
2023-03-29T03:28:35.379Z,5.7
2023-03-29T03:33:41.486Z,5.7
2023-03-29T03:38:47.602Z,5.7
2023-03-29T03:43:53.729Z,5.4
2023-03-29T03:48:59.836Z,5.7
2023-03-29T03:54:05.983Z,5.7
2023-03-29T03:59:12.083Z,5.1
2023-03-29T04:04:18.188Z,6
2023-03-29T04:09:24.309Z,5.4
2023-03-29T04:14:30.418Z,5.1
2023-03-29T04:19:35.549Z,5.4
2023-03-29T04:24:41.665Z,5.7
2023-03-29T04:29:47.797Z,6
2023-03-29T04:34:53.951Z,5.4
2023-03-29T04:40:00.027Z,5.7
2023-03-29T04:45:05.206Z,5.7
2023-03-29T04:50:11.287Z,5.4
2023-03-29T04:55:17.392Z,5.1
2023-03-29T05:00:23.529Z,5.7
2023-03-29T05:05:29.606Z,5.4
2023-03-29T05:10:35.724Z,5.7
2023-03-29T05:15:41.842Z,5.7
2023-03-29T05:20:47.961Z,5.1
2023-03-29T05:25:54.074Z,5.1
2023-03-29T05:31:00.179Z,5.4
2023-03-29T05:36:06.315Z,5.7
2023-03-29T05:41:12.427Z,5.4
2023-03-29T05:46:20.197Z,5.4
2023-03-29T05:51:23.676Z,5.4
2023-03-29T05:56:29.774Z,5.1
2023-03-29T06:01:35.940Z,5.4
2023-03-29T06:06:42.017Z,5.4
2023-03-29T06:11:48.112Z,4.7
2023-03-29T06:16:54.248Z,5.4
2023-03-29T06:22:00.358Z,5.1
2023-03-29T06:27:06.478Z,5.1
2023-03-29T06:32:12.585Z,5.7
2023-03-29T06:37:18.696Z,5.4
2023-03-29T06:42:24.819Z,5.4
2023-03-29T06:47:30.936Z,5.4
2023-03-29T06:52:37.053Z,5.4
2023-03-29T06:57:42.187Z,5.4
2023-03-29T07:02:48.315Z,5.1
2023-03-29T07:07:54.416Z,4.7
2023-03-29T07:13:00.538Z,5.7
2023-03-29T07:18:06.659Z,5.1
2023-03-29T07:23:12.775Z,5.4
2023-03-29T07:28:18.912Z,5.7
2023-03-29T07:33:25.039Z,5.4
2023-03-29T07:38:31.129Z,5.4
2023-03-29T07:43:37.319Z,5.7
2023-03-29T07:48:43.396Z,5.4
2023-03-29T07:53:49.486Z,5.7
2023-03-29T07:58:55.612Z,5.1
2023-03-29T08:04:00.818Z,4.7
2023-03-29T08:09:06.855Z,5.1
2023-03-29T08:14:12.977Z,5.1
2023-03-29T08:19:19.106Z,5.1
2023-03-29T08:24:25.195Z,5.7
2023-03-29T08:29:31.306Z,5.1
2023-03-29T08:34:37.419Z,5.4
2023-03-29T08:39:43.548Z,5.1
2023-03-29T08:44:49.635Z,5.4
2023-03-29T08:49:55.776Z,5.1
2023-03-29T08:55:01.867Z,5.1
2023-03-29T09:00:07.977Z,5.7
2023-03-29T09:05:14.104Z,5.7
2023-03-29T09:10:19.205Z,5.4
2023-03-29T09:15:25.329Z,5.1
2023-03-29T09:20:31.426Z,5.1
2023-03-29T09:25:37.538Z,5.1
2023-03-29T09:30:43.655Z,5.1
2023-03-29T09:35:49.764Z,5.4
2023-03-29T09:40:55.879Z,5.4
2023-03-29T09:46:01.995Z,5.4
2023-03-29T09:51:12.273Z,5.4
2023-03-29T09:56:14.237Z,5.1
2023-03-29T10:01:20.327Z,5.7
2023-03-29T10:06:26.442Z,5.1
2023-03-29T10:11:32.559Z,5.1
2023-03-29T10:16:37.682Z,5.1
2023-03-29T10:21:43.798Z,5.4
2023-03-29T10:26:49.937Z,4.7
2023-03-29T10:31:56.066Z,5.4
2023-03-29T10:37:02.140Z,4.4
2023-03-29T10:42:08.246Z,5.4
2023-03-29T10:47:14.394Z,5.4
2023-03-29T10:52:20.471Z,5.1
2023-03-29T10:57:26.590Z,5.4
2023-03-29T11:02:32.684Z,5.4
2023-03-29T11:07:38.817Z,5.4
2023-03-29T11:12:44.906Z,5.4
2023-03-29T11:17:51.032Z,5.4
2023-03-29T11:22:56.143Z,5.1
2023-03-29T11:28:02.249Z,5.4
2023-03-29T11:33:08.448Z,5.4
2023-03-29T11:38:14.477Z,5.4
2023-03-29T11:43:20.590Z,5.1
2023-03-29T11:48:26.686Z,5.7
2023-03-29T11:53:32.783Z,5.4
2023-03-29T11:58:38.900Z,5.7
2023-03-29T12:03:45.005Z,5.4
2023-03-29T12:08:51.117Z,5.1
2023-03-29T12:13:57.208Z,5.7
2023-03-29T12:19:03.325Z,5.1
2023-03-29T12:24:09.410Z,5.1
2023-03-29T12:29:14.540Z,5.1
2023-03-29T12:34:20.651Z,5.4
2023-03-29T12:39:26.771Z,5.4
2023-03-29T12:44:32.872Z,5.7
2023-03-29T12:49:38.977Z,5.4
2023-03-29T12:54:45.094Z,5.4
2023-03-29T12:59:51.195Z,5.7
2023-03-29T13:04:57.320Z,5.7
2023-03-29T13:10:03.443Z,5.7
2023-03-29T13:15:09.532Z,5.4
2023-03-29T13:20:15.642Z,6
2023-03-29T13:25:21.742Z,5.4
2023-03-29T13:30:27.852Z,5.4
2023-03-29T13:35:32.970Z,5.4
2023-03-29T13:40:39.075Z,6
2023-03-29T13:45:45.193Z,5.7
2023-03-29T13:50:51.401Z,5.7
2023-03-29T13:55:57.399Z,5.4
2023-03-29T14:01:03.515Z,5.4
2023-03-29T14:06:09.622Z,5.7
2023-03-29T14:11:15.734Z,6
2023-03-29T14:16:21.831Z,5.7
2023-03-29T14:21:27.945Z,6
2023-03-29T14:26:34.049Z,6
2023-03-29T14:31:40.150Z,6.3
2023-03-29T14:36:46.260Z,6
2023-03-29T14:41:51.429Z,6
2023-03-29T14:46:57.503Z,6
2023-03-29T14:52:03.610Z,6.3
2023-03-29T14:57:09.713Z,6
2023-03-29T15:02:15.816Z,5.7
2023-03-29T15:07:21.937Z,6.3
2023-03-29T15:12:28.044Z,6
2023-03-29T15:17:34.137Z,6.3
2023-03-29T15:22:40.256Z,6.3
2023-03-29T15:27:46.410Z,6.7
2023-03-29T15:32:52.457Z,6.3
2023-03-29T15:37:58.577Z,6.3
2023-03-29T15:43:04.687Z,6.3
2023-03-29T15:48:09.798Z,6.3
2023-03-29T15:53:15.908Z,6.3
2023-03-29T15:58:22.031Z,6.3
2023-03-29T16:03:28.140Z,6
2023-03-29T16:08:34.246Z,6
2023-03-29T16:13:40.351Z,6.3
2023-03-29T16:18:46.499Z,7.3
2023-03-29T16:23:52.616Z,6.7
2023-03-29T16:28:58.733Z,7
2023-03-29T16:34:04.913Z,7
2023-03-29T16:39:10.957Z,6.7
2023-03-29T16:44:17.061Z,6.7
2023-03-29T16:49:23.220Z,6.7
2023-03-29T16:54:28.316Z,6
2023-03-29T16:59:34.411Z,5.7
2023-03-29T17:04:40.541Z,6.7
2023-03-29T17:09:46.637Z,6.3
2023-03-29T17:14:52.755Z,7
2023-03-29T17:19:58.861Z,7.3
2023-03-29T17:25:04.986Z,6.3
2023-03-29T17:30:11.103Z,6.7
2023-03-29T17:35:17.224Z,7
2023-03-29T17:40:23.343Z,6.3
2023-03-29T17:45:29.443Z,7
2023-03-29T17:50:35.561Z,6.7
2023-03-29T17:55:41.669Z,6.7
2023-03-29T18:00:46.801Z,6.3
2023-03-29T18:05:52.934Z,7
2023-03-29T18:10:59.021Z,6.7
2023-03-29T18:16:05.132Z,6.7
2023-03-29T18:21:11.248Z,7.3
2023-03-29T18:26:17.376Z,6.7
2023-03-29T18:31:23.479Z,7
2023-03-29T18:36:29.600Z,7
2023-03-29T18:41:35.720Z,7.6
2023-03-29T18:46:41.825Z,7
2023-03-29T18:51:47.943Z,6.7
2023-03-29T18:56:54.053Z,6.7
2023-03-29T19:02:00.160Z,6.7
2023-03-29T19:07:05.310Z,7
2023-03-29T19:12:11.404Z,7
2023-03-29T19:17:17.526Z,6.7
2023-03-29T19:22:23.741Z,6
2023-03-29T19:27:29.737Z,6.7
2023-03-29T19:32:35.842Z,7
2023-03-29T19:37:41.964Z,6.7
2023-03-29T19:42:48.076Z,7
2023-03-29T19:47:54.169Z,7.3
2023-03-29T19:53:00.289Z,7
2023-03-29T19:58:06.398Z,7
2023-03-29T20:03:12.498Z,7
2023-03-29T20:08:18.606Z,7
2023-03-29T20:13:23.740Z,7.3
2023-03-29T20:18:29.858Z,7
2023-03-29T20:23:35.975Z,7
2023-03-29T20:28:42.127Z,7.6
2023-03-29T20:33:48.180Z,7
2023-03-29T20:38:54.301Z,7.3
2023-03-29T20:44:00.434Z,6.3
2023-03-29T20:49:06.549Z,7
2023-03-29T20:54:12.639Z,7.3
2023-03-29T20:59:18.740Z,7
2023-03-29T21:04:24.869Z,6.7
2023-03-29T21:09:30.966Z,7.3
2023-03-29T21:14:37.073Z,7
2023-03-29T21:19:42.230Z,7
2023-03-29T21:24:48.381Z,7
2023-03-29T21:29:54.472Z,7.3
2023-03-29T21:35:00.557Z,7
2023-03-29T21:40:06.683Z,7.3
2023-03-29T21:45:12.791Z,7
2023-03-29T21:50:17.922Z,7
2023-03-29T21:55:24.023Z,7.3
2023-03-29T22:00:30.133Z,6.7
2023-03-29T22:05:36.253Z,7.3
2023-03-29T22:10:42.361Z,7
2023-03-29T22:15:48.483Z,7.3
2023-03-29T22:20:54.592Z,7.3
2023-03-29T22:26:00.694Z,7.6
2023-03-29T22:31:06.818Z,7.3
2023-03-29T22:36:12.946Z,7
2023-03-29T22:41:19.014Z,7
2023-03-29T22:46:25.170Z,7
2023-03-29T22:51:31.277Z,7.3
2023-03-29T22:56:36.367Z,7.6
2023-03-29T23:01:42.493Z,6.7
2023-03-29T23:06:48.596Z,7
2023-03-29T23:11:54.707Z,7
2023-03-29T23:17:00.812Z,7.3
2023-03-29T23:22:06.915Z,8
2023-03-29T23:27:13.046Z,7
2023-03-29T23:32:19.146Z,7
2023-03-29T23:37:25.256Z,7
2023-03-29T23:42:31.363Z,7.3
2023-03-29T23:47:37.478Z,7.3
2023-03-29T23:52:43.596Z,6.7
2023-03-29T23:57:49.708Z,7
